Pagrindinis puslapis
METAR-TAF:

METAR-TAF

Oro uostai :

Latina, Italija

platuma: 41-33N, ilguma: 012-54E, Aukštis: 25 m

Dabartinis oras

Ataskaita buvo paskelbta 8 valandos ir 56 minutes, ne 17:55 UTC
Vėjas 3 kt iš Šiaurės Vakarų
Temperatūra 9°C
Drėgmė 87%
Slėgis 1025 hPa
Matomumas 10 km arba daugiau
nėra debesų žemiau 1500 m ir nėra kamuolinių lietaus debesų

METAR: LIRL 171755Z 32003KT CAVOK 09/07 Q1025 RMK FEW FEW200 MON INVIS NC VIS MIN 9999 WIND THR12 32004KT WIND THR30 30002KT BLU

Laikas: 03:51 (02:51 UTC)

Prognozė

Ataskaita buvo paskelbta 12 valandos ir 51 minutes, ne 14:00 UTC
Prognozė galioja nuo 17 metu 15 UTC su 17 metu 24 UTC
Vėjas 10 kt iš Šiaurės Vakarų
Matomumas 10 km arba daugiau
Mažai debesys ne aukštis 5000 ft
Tapsmas
nuo 17 metu 21 UTC su 17 metu 23 UTC
Vėjas 3 kt nuo kintamojo kryptimis
Matomumas: 5000 m
Išsisklaidę debesys ne aukštis 600 ft
rūkana

TAF: LIRL 171400Z 1715/1724 31010KT 9999 FEW050 BECMG 1721/1723 VRB03KT 5000 BR SCT006

Orai ataskaitas ir orų prognozės (METAR, TAF).

turimą stotys yra geltonos ir raudonos taškus žemėlapyje.

Perkelti pele per norėdami pamatyti stoties vardą.

Tada spustelėkite, norėdami matyti oro stebėjimo ir prognozės.

Norėdami pakeisti žemėlapį: spustelėkite ant žalios mygtukų su juodo kryžiaus žemyn,; žalią mygtuką su brūkšneliu, jei norite nutolinti; arba žalių rodyklių gretimoms žemėlapius.


METAR-TAF: